sensor_id;sensor_type;location;lat;lon;timestamp;pressure;altitude;pressure_sealevel;temperature;humidity
76847;BME280;65813;49.546;8.644;2022-12-18T05:15:33;102016.13;;;-7.81;83.50
76847;BME280;65813;49.546;8.644;2022-12-18T05:19:34;102033.41;;;-7.80;83.60
76847;BME280;65813;49.546;8.644;2022-12-18T05:23:34;102042.69;;;-7.87;83.73
76847;BME280;65813;49.546;8.644;2022-12-18T05:27:35;102039.91;;;-7.94;84.22
76847;BME280;65813;49.546;8.644;2022-12-18T05:31:35;102057.41;;;-7.84;84.21
76847;BME280;65813;49.546;8.644;2022-12-18T05:35:35;102039.44;;;-8.11;84.18
76847;BME280;65813;49.546;8.644;2022-12-18T05:39:35;102040.81;;;-7.92;83.96
76847;BME280;65813;49.546;8.644;2022-12-18T05:43:37;102035.63;;;-7.92;83.84
76847;BME280;65813;49.546;8.644;2022-12-18T05:47:38;102038.28;;;-7.91;83.72
76847;BME280;65813;49.546;8.644;2022-12-18T05:51:38;102039.41;;;-7.81;83.95
76847;BME280;65813;49.546;8.644;2022-12-18T05:55:40;102024.75;;;-7.81;84.21
76847;BME280;65813;49.546;8.644;2022-12-18T05:59:40;102025.22;;;-7.95;83.65
76847;BME280;65813;49.546;8.644;2022-12-18T06:03:40;102023.72;;;-7.87;83.22
76847;BME280;65813;49.546;8.644;2022-12-18T06:07:41;102031.44;;;-7.89;83.19
76847;BME280;65813;49.546;8.644;2022-12-18T06:11:41;102041.56;;;-7.96;83.77
76847;BME280;65813;49.546;8.644;2022-12-18T06:15:41;102029.34;;;-8.02;84.01
76847;BME280;65813;49.546;8.644;2022-12-18T06:19:42;102033.25;;;-7.86;83.79
76847;BME280;65813;49.546;8.644;2022-12-18T06:23:43;102044.25;;;-7.93;83.39
76847;BME280;65813;49.546;8.644;2022-12-18T06:27:43;102055.19;;;-8.02;83.50
76847;BME280;65813;49.546;8.644;2022-12-18T06:31:44;102059.63;;;-7.98;83.84
76847;BME280;65813;49.546;8.644;2022-12-18T06:35:44;102071.19;;;-8.13;83.77
76847;BME280;65813;49.546;8.644;2022-12-18T06:39:44;102067.44;;;-8.25;83.68
76847;BME280;65813;49.546;8.644;2022-12-18T06:43:44;102077.78;;;-7.95;83.90
76847;BME280;65813;49.546;8.644;2022-12-18T06:47:45;102070.75;;;-8.00;83.22
76847;BME280;65813;49.546;8.644;2022-12-18T06:51:45;102081.75;;;-8.07;83.65
76847;BME280;65813;49.546;8.644;2022-12-18T06:55:45;102081.66;;;-8.10;83.20
76847;BME280;65813;49.546;8.644;2022-12-18T06:59:46;102090.31;;;-8.08;83.51
76847;BME280;65813;49.546;8.644;2022-12-18T07:03:47;102109.44;;;-8.03;83.71
76847;BME280;65813;49.546;8.644;2022-12-18T07:07:51;102102.59;;;-8.01;83.24
76847;BME280;65813;49.546;8.644;2022-12-18T07:11:51;102123.09;;;-8.07;83.35
76847;BME280;65813;49.546;8.644;2022-12-18T07:15:51;102124.47;;;-8.19;82.79
76847;BME280;65813;49.546;8.644;2022-12-18T07:19:52;102121.50;;;-8.02;83.08
76847;BME280;65813;49.546;8.644;2022-12-18T07:23:52;102112.47;;;-8.17;83.41
76847;BME280;65813;49.546;8.644;2022-12-18T07:27:52;102130.72;;;-8.40;84.34
76847;BME280;65813;49.546;8.644;2022-12-18T07:31:52;102114.03;;;-8.22;84.37
76847;BME280;65813;49.546;8.644;2022-12-18T07:35:53;102123.56;;;-8.21;84.33
76847;BME280;65813;49.546;8.644;2022-12-18T07:39:53;102116.88;;;-8.14;84.71
76847;BME280;65813;49.546;8.644;2022-12-18T07:43:53;102110.81;;;-8.14;84.95
76847;BME280;65813;49.546;8.644;2022-12-18T07:47:54;102089.59;;;-8.04;84.32
76847;BME280;65813;49.546;8.644;2022-12-18T07:51:54;102095.41;;;-8.11;84.25
76847;BME280;65813;49.546;8.644;2022-12-18T07:55:57;102091.03;;;-8.14;84.52
76847;BME280;65813;49.546;8.644;2022-12-18T07:59:57;102099.41;;;-8.21;84.20
76847;BME280;65813;49.546;8.644;2022-12-18T08:03:58;102099.84;;;-8.07;83.20
76847;BME280;65813;49.546;8.644;2022-12-18T08:07:58;102105.47;;;-8.21;83.75
76847;BME280;65813;49.546;8.644;2022-12-18T08:11:59;102106.53;;;-8.14;83.52
76847;BME280;65813;49.546;8.644;2022-12-18T08:16:00;102113.56;;;-8.08;83.42
76847;BME280;65813;49.546;8.644;2022-12-18T08:20:00;102111.75;;;-8.41;84.03
76847;BME280;65813;49.546;8.644;2022-12-18T08:24:01;102127.97;;;-8.17;83.68
76847;BME280;65813;49.546;8.644;2022-12-18T08:28:03;102110.44;;;-8.28;84.29
76847;BME280;65813;49.546;8.644;2022-12-18T08:32:04;102122.22;;;-8.08;83.65
76847;BME280;65813;49.546;8.644;2022-12-18T08:36:04;102116.88;;;-7.84;83.18
76847;BME280;65813;49.546;8.644;2022-12-18T08:40:08;102126.91;;;-7.95;83.28
76847;BME280;65813;49.546;8.644;2022-12-18T08:44:08;102100.00;;;-8.01;84.60
76847;BME280;65813;49.546;8.644;2022-12-18T08:48:27;102095.44;;;-7.80;83.95
76847;BME280;65813;49.546;8.644;2022-12-18T08:52:27;102084.28;;;-7.79;83.48
76847;BME280;65813;49.546;8.644;2022-12-18T08:56:28;102083.44;;;-7.78;83.64
76847;BME280;65813;49.546;8.644;2022-12-18T09:00:32;102076.81;;;-7.69;83.37
76847;BME280;65813;49.546;8.644;2022-12-18T09:04:32;102080.41;;;-7.63;83.50
76847;BME280;65813;49.546;8.644;2022-12-18T09:08:32;102069.16;;;-7.65;82.99
76847;BME280;65813;49.546;8.644;2022-12-18T09:12:36;102051.00;;;-7.67;83.05
76847;BME280;65813;49.546;8.644;2022-12-18T09:16:37;102045.31;;;-7.54;82.95
76847;BME280;65813;49.546;8.644;2022-12-18T09:20:37;102045.16;;;-7.60;82.98
76847;BME280;65813;49.546;8.644;2022-12-18T09:24:38;102054.97;;;-7.47;82.95
76847;BME280;65813;49.546;8.644;2022-12-18T09:28:38;102048.31;;;-7.39;82.42
76847;BME280;65813;49.546;8.644;2022-12-18T09:32:38;102061.41;;;-7.33;83.01
76847;BME280;65813;49.546;8.644;2022-12-18T09:36:38;102077.25;;;-7.21;83.09
76847;BME280;65813;49.546;8.644;2022-12-18T09:45:12;102078.91;;;-6.90;82.20
76847;BME280;65813;49.546;8.644;2022-12-18T09:49:16;102087.75;;;-6.80;81.70
76847;BME280;65813;49.546;8.644;2022-12-18T09:53:21;102090.44;;;-6.77;81.88
76847;BME280;65813;49.546;8.644;2022-12-18T09:57:24;102094.19;;;-6.65;81.84
76847;BME280;65813;49.546;8.644;2022-12-18T10:01:26;102118.06;;;-6.42;81.75
76847;BME280;65813;49.546;8.644;2022-12-18T10:05:39;102103.84;;;-6.20;81.00
76847;BME280;65813;49.546;8.644;2022-12-18T10:23:33;102096.41;;;-5.17;77.56
76847;BME280;65813;49.546;8.644;2022-12-18T10:27:39;102090.94;;;-4.82;75.87
76847;BME280;65813;49.546;8.644;2022-12-18T10:31:39;102087.41;;;-4.86;75.32
76847;BME280;65813;49.546;8.644;2022-12-18T10:35:41;102090.75;;;-4.94;76.28
76847;BME280;65813;49.546;8.644;2022-12-18T10:39:42;102079.47;;;-4.95;76.86
76847;BME280;65813;49.546;8.644;2022-12-18T10:43:42;102073.16;;;-5.09;77.17
76847;BME280;65813;49.546;8.644;2022-12-18T10:47:52;102058.13;;;-5.28;78.19
76847;BME280;65813;49.546;8.644;2022-12-18T10:52:11;102056.31;;;-5.32;78.60
76847;BME280;65813;49.546;8.644;2022-12-18T10:56:20;102053.72;;;-5.31;78.87
76847;BME280;65813;49.546;8.644;2022-12-18T11:00:25;102068.91;;;-5.05;78.93
76847;BME280;65813;49.546;8.644;2022-12-18T11:04:31;102061.34;;;-4.92;78.47
76847;BME280;65813;49.546;8.644;2022-12-18T11:08:31;102052.94;;;-4.76;78.75
76847;BME280;65813;49.546;8.644;2022-12-18T11:12:32;102058.38;;;-4.62;78.67
76847;BME280;65813;49.546;8.644;2022-12-18T11:16:36;102060.50;;;-4.34;78.28
76847;BME280;65813;49.546;8.644;2022-12-18T11:20:38;102055.41;;;-4.28;79.74
76847;BME280;65813;49.546;8.644;2022-12-18T11:24:39;102057.47;;;-4.02;79.44
76847;BME280;65813;49.546;8.644;2022-12-18T11:29:08;102064.47;;;-3.98;79.64
76847;BME280;65813;49.546;8.644;2022-12-18T11:33:16;102068.22;;;-3.75;79.50
76847;BME280;65813;49.546;8.644;2022-12-18T11:37:18;102061.91;;;-3.92;78.39
76847;BME280;65813;49.546;8.644;2022-12-18T11:41:29;102073.50;;;-3.69;79.60
76847;BME280;65813;49.546;8.644;2022-12-18T11:46:02;102076.31;;;-3.52;77.83
76847;BME280;65813;49.546;8.644;2022-12-18T11:50:10;102063.16;;;-3.63;77.22
76847;BME280;65813;49.546;8.644;2022-12-18T11:54:14;102053.44;;;-3.79;77.25
76847;BME280;65813;49.546;8.644;2022-12-18T12:07:02;102043.56;;;-4.04;78.46
76847;BME280;65813;49.546;8.644;2022-12-18T12:41:06;102037.31;;;-3.45;76.37
76847;BME280;65813;49.546;8.644;2022-12-18T12:45:45;102037.44;;;-3.33;76.22
76847;BME280;65813;49.546;8.644;2022-12-18T12:49:49;102025.81;;;-3.65;76.76
76847;BME280;65813;49.546;8.644;2022-12-18T12:53:50;101988.59;;;-3.55;76.00
76847;BME280;65813;49.546;8.644;2022-12-18T12:58:26;102001.31;;;-3.82;77.63
76847;BME280;65813;49.546;8.644;2022-12-18T13:02:56;101992.59;;;-3.87;78.42
76847;BME280;65813;49.546;8.644;2022-12-18T13:11:32;101972.75;;;-3.78;77.71
76847;BME280;65813;49.546;8.644;2022-12-18T13:16:06;101967.50;;;-3.82;78.57
76847;BME280;65813;49.546;8.644;2022-12-18T13:20:12;101952.84;;;-3.74;77.98
76847;BME280;65813;49.546;8.644;2022-12-18T13:24:27;101935.66;;;-3.55;77.14
76847;BME280;65813;49.546;8.644;2022-12-18T13:32:33;101942.47;;;-3.68;77.64
76847;BME280;65813;49.546;8.644;2022-12-18T13:36:34;101927.75;;;-3.66;76.60
76847;BME280;65813;49.546;8.644;2022-12-18T13:44:50;101932.88;;;-3.72;78.21
76847;BME280;65813;49.546;8.644;2022-12-18T13:49:24;101939.03;;;-3.64;77.69
76847;BME280;65813;49.546;8.644;2022-12-18T13:53:52;101933.13;;;-3.49;76.47
76847;BME280;65813;49.546;8.644;2022-12-18T13:58:03;101940.03;;;-3.53;77.05
76847;BME280;65813;49.546;8.644;2022-12-18T14:02:21;101933.03;;;-3.60;76.94
76847;BME280;65813;49.546;8.644;2022-12-18T14:06:21;101938.84;;;-3.87;78.18
76847;BME280;65813;49.546;8.644;2022-12-18T14:10:22;101947.47;;;-3.89;77.54
76847;BME280;65813;49.546;8.644;2022-12-18T14:14:22;101933.47;;;-4.03;78.26
76847;BME280;65813;49.546;8.644;2022-12-18T14:18:55;101940.34;;;-4.05;78.90
76847;BME280;65813;49.546;8.644;2022-12-18T14:22:59;101947.91;;;-4.27;79.56
76847;BME280;65813;49.546;8.644;2022-12-18T14:27:23;101940.88;;;-4.34;80.03
76847;BME280;65813;49.546;8.644;2022-12-18T14:31:25;101940.97;;;-4.28;79.92
76847;BME280;65813;49.546;8.644;2022-12-18T14:35:29;101951.19;;;-4.43;80.20
76847;BME280;65813;49.546;8.644;2022-12-18T14:39:30;101955.44;;;-4.48;80.40
76847;BME280;65813;49.546;8.644;2022-12-18T14:43:46;101953.00;;;-4.36;80.01
76847;BME280;65813;49.546;8.644;2022-12-18T14:47:48;101948.78;;;-4.26;80.08
76847;BME280;65813;49.546;8.644;2022-12-18T14:51:50;101954.63;;;-4.44;80.65
76847;BME280;65813;49.546;8.644;2022-12-18T14:55:51;101952.91;;;-4.43;80.94
76847;BME280;65813;49.546;8.644;2022-12-18T14:59:52;101955.50;;;-4.43;80.55
76847;BME280;65813;49.546;8.644;2022-12-18T15:03:53;101936.38;;;-4.47;81.19
76847;BME280;65813;49.546;8.644;2022-12-18T15:07:57;101921.72;;;-4.45;81.00
76847;BME280;65813;49.546;8.644;2022-12-18T15:12:00;101912.94;;;-4.53;80.93
76847;BME280;65813;49.546;8.644;2022-12-18T15:16:01;101917.06;;;-4.67;81.07
76847;BME280;65813;49.546;8.644;2022-12-18T15:20:09;101913.56;;;-4.71;81.07
76847;BME280;65813;49.546;8.644;2022-12-18T15:24:27;101921.31;;;-4.72;80.79
76847;BME280;65813;49.546;8.644;2022-12-18T15:28:53;101912.38;;;-4.92;81.29
76847;BME280;65813;49.546;8.644;2022-12-18T15:33:22;101914.94;;;-4.97;81.74
76847;BME280;65813;49.546;8.644;2022-12-18T15:37:23;101902.75;;;-4.99;81.72
76847;BME280;65813;49.546;8.644;2022-12-18T15:41:24;101907.19;;;-4.92;82.20
76847;BME280;65813;49.546;8.644;2022-12-18T15:45:24;101915.84;;;-4.93;82.29
76847;BME280;65813;49.546;8.644;2022-12-18T15:49:25;101918.34;;;-5.01;81.91
76847;BME280;65813;49.546;8.644;2022-12-18T15:53:29;101911.66;;;-4.84;82.19
76847;BME280;65813;49.546;8.644;2022-12-18T15:57:30;101900.28;;;-4.93;81.72
76847;BME280;65813;49.546;8.644;2022-12-18T16:01:30;101915.84;;;-4.93;81.88
76847;BME280;65813;49.546;8.644;2022-12-18T16:05:31;101913.25;;;-4.92;81.69
76847;BME280;65813;49.546;8.644;2022-12-18T16:09:32;101917.53;;;-4.95;82.33
76847;BME280;65813;49.546;8.644;2022-12-18T16:13:32;101908.03;;;-4.95;82.18
76847;BME280;65813;49.546;8.644;2022-12-18T16:17:32;101915.03;;;-4.91;82.36
76847;BME280;65813;49.546;8.644;2022-12-18T16:21:33;101914.97;;;-4.94;82.55
76847;BME280;65813;49.546;8.644;2022-12-18T16:25:33;101901.91;;;-4.98;82.54
76847;BME280;65813;49.546;8.644;2022-12-18T16:29:34;101906.16;;;-5.05;82.88
76847;BME280;65813;49.546;8.644;2022-12-18T16:33:34;101884.56;;;-4.99;82.46
76847;BME280;65813;49.546;8.644;2022-12-18T16:37:34;101895.13;;;-4.89;82.26
76847;BME280;65813;49.546;8.644;2022-12-18T16:41:35;101887.22;;;-4.98;82.37
76847;BME280;65813;49.546;8.644;2022-12-18T16:45:35;101889.78;;;-5.01;82.62
76847;BME280;65813;49.546;8.644;2022-12-18T16:49:36;101881.13;;;-5.00;82.92
76847;BME280;65813;49.546;8.644;2022-12-18T16:53:36;101873.41;;;-4.94;82.56
76847;BME280;65813;49.546;8.644;2022-12-18T16:57:36;101868.03;;;-5.06;82.29
76847;BME280;65813;49.546;8.644;2022-12-18T17:01:37;101870.44;;;-5.21;82.93
76847;BME280;65813;49.546;8.644;2022-12-18T17:05:38;101868.84;;;-5.10;83.23
76847;BME280;65813;49.546;8.644;2022-12-18T17:09:38;101870.63;;;-5.07;83.49
76847;BME280;65813;49.546;8.644;2022-12-18T17:13:39;101868.16;;;-4.98;83.83
76847;BME280;65813;49.546;8.644;2022-12-18T17:17:40;101852.63;;;-4.94;83.42
76847;BME280;65813;49.546;8.644;2022-12-18T17:21:40;101866.50;;;-4.92;82.87
76847;BME280;65813;49.546;8.644;2022-12-18T17:25:40;101859.50;;;-4.96;83.25
76847;BME280;65813;49.546;8.644;2022-12-18T17:29:41;101877.78;;;-4.91;83.40
76847;BME280;65813;49.546;8.644;2022-12-18T17:33:42;101882.00;;;-4.98;83.94
76847;BME280;65813;49.546;8.644;2022-12-18T17:37:43;101871.63;;;-4.96;83.76
76847;BME280;65813;49.546;8.644;2022-12-18T17:41:43;101876.94;;;-4.90;83.80
76847;BME280;65813;49.546;8.644;2022-12-18T17:45:43;101871.72;;;-4.90;83.29
76847;BME280;65813;49.546;8.644;2022-12-18T17:49:44;101875.22;;;-4.90;83.55
76847;BME280;65813;49.546;8.644;2022-12-18T17:53:44;101857.63;;;-5.09;83.56
76847;BME280;65813;49.546;8.644;2022-12-18T17:57:45;101858.53;;;-5.05;84.01
76847;BME280;65813;49.546;8.644;2022-12-18T18:01:45;101847.22;;;-5.11;84.18
76847;BME280;65813;49.546;8.644;2022-12-18T18:05:45;101856.84;;;-5.03;83.70
76847;BME280;65813;49.546;8.644;2022-12-18T18:09:46;101861.19;;;-4.99;83.98
76847;BME280;65813;49.546;8.644;2022-12-18T18:13:46;101846.56;;;-4.94;83.61
76847;BME280;65813;49.546;8.644;2022-12-18T18:18:02;101836.16;;;-4.93;83.49
76847;BME280;65813;49.546;8.644;2022-12-18T18:22:02;101838.78;;;-4.93;84.02
76847;BME280;65813;49.546;8.644;2022-12-18T18:26:04;101842.25;;;-4.94;84.27
76847;BME280;65813;49.546;8.644;2022-12-18T18:30:05;101843.97;;;-4.93;84.31
76847;BME280;65813;49.546;8.644;2022-12-18T18:34:06;101844.81;;;-4.95;84.23
76847;BME280;65813;49.546;8.644;2022-12-18T18:38:06;101848.31;;;-4.93;84.14
76847;BME280;65813;49.546;8.644;2022-12-18T18:42:07;101854.34;;;-4.93;84.44
76847;BME280;65813;49.546;8.644;2022-12-18T18:46:10;101853.50;;;-4.93;84.52
76847;BME280;65813;49.546;8.644;2022-12-18T18:50:11;101859.63;;;-4.90;84.73
76847;BME280;65813;49.546;8.644;2022-12-18T18:54:12;101856.28;;;-4.78;84.31
76847;BME280;65813;49.546;8.644;2022-12-18T18:58:12;101846.72;;;-4.81;83.88
76847;BME280;65813;49.546;8.644;2022-12-18T19:02:14;101839.75;;;-4.86;84.56
76847;BME280;65813;49.546;8.644;2022-12-18T19:06:25;101838.84;;;-4.88;84.90
76847;BME280;65813;49.546;8.644;2022-12-18T19:10:26;101825.00;;;-4.87;84.57
76847;BME280;65813;49.546;8.644;2022-12-18T19:14:26;101821.66;;;-4.76;84.29
76847;BME280;65813;49.546;8.644;2022-12-18T19:18:27;101814.84;;;-4.69;83.81
76847;BME280;65813;49.546;8.644;2022-12-18T19:22:27;101795.66;;;-4.79;84.34
76847;BME280;65813;49.546;8.644;2022-12-18T19:26:28;101790.53;;;-4.73;84.29
76847;BME280;65813;49.546;8.644;2022-12-18T19:30:28;101793.94;;;-4.80;84.68
76847;BME280;65813;49.546;8.644;2022-12-18T19:34:28;101796.44;;;-4.86;85.12
76847;BME280;65813;49.546;8.644;2022-12-18T19:38:29;101785.09;;;-4.92;85.62
76847;BME280;65813;49.546;8.644;2022-12-18T19:42:29;101788.59;;;-4.90;85.79
76847;BME280;65813;49.546;8.644;2022-12-18T19:46:29;101777.31;;;-4.92;85.87
76847;BME280;65813;49.546;8.644;2022-12-18T19:50:30;101789.41;;;-4.94;86.04
76847;BME280;65813;49.546;8.644;2022-12-18T19:54:30;101785.03;;;-5.00;85.67
76847;BME280;65813;49.546;8.644;2022-12-18T19:58:31;101786.88;;;-4.90;85.44
76847;BME280;65813;49.546;8.644;2022-12-18T20:02:31;101780.00;;;-4.86;85.36
76847;BME280;65813;49.546;8.644;2022-12-18T20:06:48;101791.22;;;-4.87;85.75
76847;BME280;65813;49.546;8.644;2022-12-18T20:10:49;101770.47;;;-4.84;85.90
76847;BME280;65813;49.546;8.644;2022-12-18T20:14:49;101765.31;;;-4.81;85.48
76847;BME280;65813;49.546;8.644;2022-12-18T20:18:49;101774.06;;;-4.76;85.23
76847;BME280;65813;49.546;8.644;2022-12-18T20:22:50;101773.19;;;-4.74;85.77
76847;BME280;65813;49.546;8.644;2022-12-18T20:26:50;101757.47;;;-4.87;85.22
76847;BME280;65813;49.546;8.644;2022-12-18T20:30:57;101786.13;;;-4.78;85.65
76847;BME280;65813;49.546;8.644;2022-12-18T20:34:58;101774.84;;;-4.83;85.27
76847;BME280;65813;49.546;8.644;2022-12-18T20:38:58;101780.03;;;-4.83;85.56
76847;BME280;65813;49.546;8.644;2022-12-18T20:42:59;101793.22;;;-4.65;84.78
76847;BME280;65813;49.546;8.644;2022-12-18T20:46:59;101803.47;;;-4.77;85.26
76847;BME280;65813;49.546;8.644;2022-12-18T20:51:05;101793.97;;;-4.75;85.10
76847;BME280;65813;49.546;8.644;2022-12-18T20:55:06;101786.16;;;-4.75;85.48
76847;BME280;65813;49.546;8.644;2022-12-18T20:59:07;101757.59;;;-4.77;85.16
76847;BME280;65813;49.546;8.644;2022-12-18T21:03:11;101748.88;;;-4.80;85.71
76847;BME280;65813;49.546;8.644;2022-12-18T21:07:11;101744.56;;;-4.78;85.61
76847;BME280;65813;49.546;8.644;2022-12-18T21:15:35;101752.34;;;-4.80;86.01
76847;BME280;65813;49.546;8.644;2022-12-18T21:19:36;101763.69;;;-4.73;86.56
76847;BME280;65813;49.546;8.644;2022-12-18T21:23:36;101781.94;;;-4.67;86.31
76847;BME280;65813;49.546;8.644;2022-12-18T21:27:36;101781.19;;;-4.58;86.09
76847;BME280;65813;49.546;8.644;2022-12-18T21:31:38;101797.59;;;-4.61;86.15
76847;BME280;65813;49.546;8.644;2022-12-18T21:35:38;101773.28;;;-4.65;86.04
76847;BME280;65813;49.546;8.644;2022-12-18T21:39:38;101778.59;;;-4.54;85.90
76847;BME280;65813;49.546;8.644;2022-12-18T21:43:39;101777.84;;;-4.44;85.74
76847;BME280;65813;49.546;8.644;2022-12-18T21:47:58;101758.94;;;-4.28;85.41
76847;BME280;65813;49.546;8.644;2022-12-18T21:51:59;101771.09;;;-4.25;84.92
76847;BME280;65813;49.546;8.644;2022-12-18T21:56:00;101751.09;;;-4.32;85.25
76847;BME280;65813;49.546;8.644;2022-12-18T22:00:00;101754.50;;;-4.39;85.08
76847;BME280;65813;49.546;8.644;2022-12-18T22:04:02;101767.47;;;-4.41;85.58
76847;BME280;65813;49.546;8.644;2022-12-18T22:08:02;101758.81;;;-4.40;86.45
76847;BME280;65813;49.546;8.644;2022-12-18T22:12:03;101793.47;;;-4.42;86.40
